createdAt,value
2018-09-25T00:00:26.168Z,1017.90
2018-09-25T00:01:26.153Z,1017.88
2018-09-25T00:02:26.169Z,1017.87
2018-09-25T00:03:26.126Z,1017.88
2018-09-25T00:04:26.163Z,1017.87
2018-09-25T00:05:26.111Z,1017.90
2018-09-25T00:06:26.091Z,1017.89
2018-09-25T00:07:26.084Z,1017.88
2018-09-25T00:08:26.088Z,1017.92
2018-09-25T00:09:26.058Z,1017.86
2018-09-25T00:10:26.175Z,1017.93
2018-09-25T00:11:26.039Z,1017.98
2018-09-25T00:12:26.025Z,1017.97
2018-09-25T00:13:26.024Z,1017.96
2018-09-25T00:14:26.030Z,1017.96
2018-09-25T00:15:25.998Z,1017.92
2018-09-25T00:16:26.017Z,1017.96
2018-09-25T00:17:25.973Z,1017.96
2018-09-25T00:18:25.968Z,1017.97
2018-09-25T00:19:25.954Z,1017.94
2018-09-25T00:20:25.992Z,1017.91
2018-09-25T00:21:25.934Z,1017.90
2018-09-25T00:22:26.713Z,1017.90
2018-09-25T00:23:25.906Z,1017.91
2018-09-25T00:24:25.912Z,1017.91
2018-09-25T00:25:25.885Z,1017.85
2018-09-25T00:26:25.897Z,1017.82
2018-09-25T00:27:25.861Z,1017.84
2018-09-25T00:28:25.884Z,1017.84
2018-09-25T00:29:25.836Z,1017.87
2018-09-25T00:30:25.837Z,1017.87
2018-09-25T00:31:25.814Z,1017.88
2018-09-25T00:32:25.817Z,1017.86
2018-09-25T00:33:25.798Z,1017.88
2018-09-25T00:34:25.869Z,1017.88
2018-09-25T00:35:25.774Z,1017.85
2018-09-25T00:36:25.777Z,1017.93
2018-09-25T00:37:25.767Z,1017.86
2018-09-25T00:38:25.747Z,1017.79
2018-09-25T00:39:25.733Z,1017.85
2018-09-25T00:40:25.805Z,1017.90
2018-09-25T00:41:25.723Z,1017.88
2018-09-25T00:42:25.703Z,1017.91
2018-09-25T00:43:25.688Z,1017.92
2018-09-25T00:44:25.708Z,1017.91
2018-09-25T00:45:25.674Z,1017.87
2018-09-25T00:46:25.685Z,1017.88
2018-09-25T00:47:25.652Z,1017.85
2018-09-25T00:48:25.633Z,1017.85
2018-09-25T00:49:25.618Z,1017.88
2018-09-25T00:50:25.627Z,1017.87
2018-09-25T00:51:25.603Z,1017.84
2018-09-25T00:52:25.627Z,1017.84
2018-09-25T00:53:25.579Z,1017.87
2018-09-25T00:54:25.566Z,1017.88
2018-09-25T00:55:25.574Z,1017.85
2018-09-25T00:56:25.540Z,1017.84
2018-09-25T00:57:25.529Z,1017.85
2018-09-25T00:58:25.570Z,1017.81
2018-09-25T00:59:25.508Z,1017.87
2018-09-25T01:00:25.498Z,1017.88
2018-09-25T01:01:25.495Z,1017.88
2018-09-25T01:02:25.543Z,1017.87
2018-09-25T01:03:25.482Z,1017.89
2018-09-25T01:04:25.484Z,1017.87
2018-09-25T01:05:25.462Z,1017.87
2018-09-25T01:06:25.432Z,1017.83
2018-09-25T01:07:25.424Z,1017.81
2018-09-25T01:08:25.412Z,1017.87
2018-09-25T01:09:25.424Z,1017.83
2018-09-25T01:10:25.434Z,1017.85
2018-09-25T01:11:25.376Z,1017.89
2018-09-25T01:12:25.378Z,1017.91
2018-09-25T01:13:25.353Z,1017.86
2018-09-25T01:14:25.341Z,1017.89
2018-09-25T01:15:25.348Z,1017.83
2018-09-25T01:16:25.362Z,1017.80
2018-09-25T01:17:25.315Z,1017.82
2018-09-25T01:18:25.296Z,1017.85
2018-09-25T01:19:25.286Z,1017.86
2018-09-25T01:20:25.283Z,1017.82
2018-09-25T01:21:25.288Z,1017.89
2018-09-25T01:22:25.309Z,1017.89
2018-09-25T01:23:25.243Z,1017.91
2018-09-25T01:24:25.233Z,1017.89
2018-09-25T01:25:25.221Z,1017.89
2018-09-25T01:26:25.208Z,1017.91
2018-09-25T01:27:25.200Z,1017.89
2018-09-25T01:28:25.245Z,1017.86
2018-09-25T01:29:25.182Z,1017.86
2018-09-25T01:30:25.172Z,1017.89
2018-09-25T01:31:25.152Z,1017.89
2018-09-25T01:32:25.155Z,1017.85
2018-09-25T01:33:25.133Z,1017.85
2018-09-25T01:34:25.170Z,1017.86
2018-09-25T01:35:25.110Z,1017.86
2018-09-25T01:36:25.101Z,1017.82
2018-09-25T01:37:25.089Z,1017.87
2018-09-25T01:38:25.076Z,1017.88
2018-09-25T01:39:25.064Z,1017.92
2018-09-25T01:40:25.107Z,1017.98
2018-09-25T01:41:25.042Z,1017.96
2018-09-25T01:42:25.032Z,1018.00
2018-09-25T01:43:25.024Z,1018.01
2018-09-25T01:44:25.017Z,1017.98
2018-09-25T01:45:25.002Z,1017.91
2018-09-25T01:46:25.031Z,1017.97
2018-09-25T01:47:24.982Z,1017.91
2018-09-25T01:48:24.985Z,1017.98
2018-09-25T01:49:24.963Z,1017.97
2018-09-25T01:50:24.947Z,1017.96
2018-09-25T01:51:24.938Z,1017.95
2018-09-25T01:52:24.960Z,1017.98
2018-09-25T01:53:24.933Z,1017.96
2018-09-25T01:54:24.916Z,1018.02
2018-09-25T01:55:24.895Z,1018.05
2018-09-25T01:56:24.897Z,1018.08
2018-09-25T01:57:24.877Z,1018.03
2018-09-25T01:58:24.943Z,1018.07
2018-09-25T01:59:24.848Z,1018.08
2018-09-25T02:00:24.843Z,1018.08
2018-09-25T02:01:24.854Z,1018.12
2018-09-25T02:02:24.832Z,1018.09
2018-09-25T02:03:24.814Z,1018.08
2018-09-25T02:04:24.839Z,1018.13
2018-09-25T02:05:24.792Z,1018.09
2018-09-25T02:06:24.772Z,1018.11
2018-09-25T02:07:24.764Z,1018.10
2018-09-25T02:08:24.756Z,1018.14
2018-09-25T02:09:24.754Z,1018.15
2018-09-25T02:10:24.771Z,1018.18
2018-09-25T02:11:24.721Z,1018.17
2018-09-25T02:12:24.713Z,1018.22
2018-09-25T02:13:24.709Z,1018.15
2018-09-25T02:14:24.680Z,1018.17
2018-09-25T02:15:24.667Z,1018.19
2018-09-25T02:16:24.695Z,1018.21
2018-09-25T02:17:24.670Z,1018.15
2018-09-25T02:18:24.639Z,1018.20
2018-09-25T02:19:24.632Z,1018.21
2018-09-25T02:20:24.632Z,1018.16
2018-09-25T02:21:24.599Z,1018.17
2018-09-25T02:22:24.626Z,1018.20
2018-09-25T02:23:24.583Z,1018.18
2018-09-25T02:24:24.578Z,1018.22
2018-09-25T02:25:24.558Z,1018.18
2018-09-25T02:26:24.558Z,1018.21
2018-09-25T02:27:24.553Z,1018.16
2018-09-25T02:28:24.575Z,1018.12
2018-09-25T02:29:24.517Z,1018.20
2018-09-25T02:30:24.506Z,1018.26
2018-09-25T02:31:24.492Z,1018.23
2018-09-25T02:32:24.482Z,1018.21
2018-09-25T02:33:24.501Z,1018.14
2018-09-25T02:34:24.490Z,1018.17
2018-09-25T02:35:24.450Z,1018.23
2018-09-25T02:36:24.445Z,1018.24
2018-09-25T02:37:24.428Z,1018.22
2018-09-25T02:38:24.417Z,1018.22
2018-09-25T02:39:24.422Z,1018.24
2018-09-25T02:40:24.442Z,1018.21
2018-09-25T02:41:24.386Z,1018.24
2018-09-25T02:42:24.368Z,1018.20
2018-09-25T02:43:24.368Z,1018.21
2018-09-25T02:44:24.348Z,1018.21
2018-09-25T02:45:24.337Z,1018.18
2018-09-25T02:46:24.392Z,1018.25
2018-09-25T02:47:24.313Z,1018.23
2018-09-25T02:48:24.313Z,1018.22
2018-09-25T02:49:24.297Z,1018.20
2018-09-25T02:50:24.292Z,1018.24
2018-09-25T02:51:24.268Z,1018.20
2018-09-25T02:52:24.290Z,1018.20
2018-09-25T02:53:24.268Z,1018.18
2018-09-25T02:54:24.238Z,1018.17
2018-09-25T02:55:24.225Z,1018.19
2018-09-25T02:56:24.219Z,1018.23
2018-09-25T02:57:24.206Z,1018.19
2018-09-25T02:58:24.227Z,1018.20
2018-09-25T02:59:24.203Z,1018.19
2018-09-25T03:00:24.181Z,1018.21
2018-09-25T03:01:24.162Z,1018.22
2018-09-25T03:02:24.151Z,1018.21
2018-09-25T03:03:24.149Z,1018.17
2018-09-25T03:04:24.182Z,1018.19
2018-09-25T03:05:24.129Z,1018.19
2018-09-25T03:06:24.102Z,1018.15
2018-09-25T03:07:24.114Z,1018.13
2018-09-25T03:08:24.084Z,1018.14
2018-09-25T03:09:24.074Z,1018.11
2018-09-25T03:10:24.098Z,1018.12
2018-09-25T03:11:24.080Z,1018.09
2018-09-25T03:12:24.036Z,1018.10
2018-09-25T03:13:24.036Z,1018.07
2018-09-25T03:14:24.021Z,1018.07
2018-09-25T03:15:24.011Z,1018.12
2018-09-25T03:16:24.034Z,1018.06
2018-09-25T03:17:23.982Z,1018.05
2018-09-25T03:18:23.984Z,1018.08
2018-09-25T03:19:24.032Z,1018.04
2018-09-25T03:20:24.015Z,1017.99
2018-09-25T03:21:23.978Z,1018.02
2018-09-25T03:22:23.985Z,1018.00
2018-09-25T03:23:23.928Z,1018.02
2018-09-25T03:24:23.937Z,1018.01
2018-09-25T03:25:23.913Z,1018.00
2018-09-25T03:26:23.888Z,1017.99
2018-09-25T03:27:23.876Z,1017.99
2018-09-25T03:28:23.896Z,1018.04
2018-09-25T03:29:23.860Z,1018.01
2018-09-25T03:30:23.843Z,1017.99
2018-09-25T03:31:23.850Z,1017.97
2018-09-25T03:32:23.816Z,1017.96
2018-09-25T03:33:23.806Z,1017.96
2018-09-25T03:34:23.838Z,1017.96
2018-09-25T03:35:23.782Z,1017.97
2018-09-25T03:36:23.778Z,1017.95
2018-09-25T03:37:23.768Z,1017.93
2018-09-25T03:38:23.758Z,1017.91
2018-09-25T03:39:23.740Z,1017.95
2018-09-25T03:40:23.786Z,1017.90
2018-09-25T03:41:23.719Z,1017.94
2018-09-25T03:42:23.737Z,1017.91
2018-09-25T03:43:23.702Z,1017.88
2018-09-25T03:44:23.767Z,1017.92
2018-09-25T03:45:23.680Z,1017.89
2018-09-25T03:46:23.710Z,1017.93
2018-09-25T03:47:23.647Z,1017.92
2018-09-25T03:48:23.672Z,1017.96
2018-09-25T03:49:23.639Z,1017.95
2018-09-25T03:50:23.615Z,1017.89
2018-09-25T03:51:23.603Z,1017.93
2018-09-25T03:52:23.622Z,1017.93
2018-09-25T03:53:23.588Z,1017.94
2018-09-25T03:54:23.587Z,1017.95
2018-09-25T03:55:23.592Z,1017.93
2018-09-25T03:56:23.560Z,1017.92
2018-09-25T03:57:23.547Z,1017.95
2018-09-25T03:58:23.567Z,1018.05
2018-09-25T03:59:23.541Z,1018.04
2018-09-25T04:00:23.549Z,1018.06
2018-09-25T04:01:23.615Z,1018.02
2018-09-25T04:02:23.491Z,1018.04
2018-09-25T04:03:23.497Z,1018.10
2018-09-25T04:04:23.539Z,1018.09
2018-09-25T04:05:23.453Z,1018.10
2018-09-25T04:06:23.458Z,1018.12
2018-09-25T04:07:23.483Z,1018.11
2018-09-25T04:08:23.435Z,1018.13
2018-09-25T04:09:23.458Z,1018.11
2018-09-25T04:10:23.467Z,1018.16
2018-09-25T04:11:23.398Z,1018.16
2018-09-25T04:12:23.371Z,1018.16
2018-09-25T04:13:23.359Z,1018.16
2018-09-25T04:14:23.462Z,1018.09
2018-09-25T04:15:23.380Z,1018.14
2018-09-25T04:16:23.432Z,1018.16
2018-09-25T04:17:23.322Z,1018.15
2018-09-25T04:18:23.315Z,1018.13
2018-09-25T04:19:23.305Z,1018.15
2018-09-25T04:20:23.287Z,1018.18
2018-09-25T04:21:23.288Z,1018.14
2018-09-25T04:22:23.296Z,1018.11
2018-09-25T04:23:23.253Z,1018.12
2018-09-25T04:24:23.266Z,1018.19
2018-09-25T04:25:23.246Z,1018.24
2018-09-25T04:26:23.224Z,1018.26
2018-09-25T04:27:23.211Z,1018.27
2018-09-25T04:28:23.326Z,1018.28
2018-09-25T04:29:23.198Z,1018.21
2018-09-25T04:30:23.178Z,1018.21
2018-09-25T04:31:23.168Z,1018.18
2018-09-25T04:32:23.163Z,1018.19
2018-09-25T04:33:23.139Z,1018.17
2018-09-25T04:34:23.198Z,1018.23
2018-09-25T04:35:23.120Z,1018.17
2018-09-25T04:36:23.105Z,1018.22
2018-09-25T04:37:23.111Z,1018.21
2018-09-25T04:38:23.098Z,1018.28
2018-09-25T04:39:23.074Z,1018.26
2018-09-25T04:40:23.099Z,1018.26
2018-09-25T04:41:23.049Z,1018.24
2018-09-25T04:42:23.041Z,1018.24
2018-09-25T04:43:23.051Z,1018.21
2018-09-25T04:44:23.022Z,1018.23
2018-09-25T04:45:23.224Z,1018.20
2018-09-25T04:46:23.323Z,1018.17
2018-09-25T04:47:22.985Z,1018.22
2018-09-25T04:48:23.157Z,1018.21
2018-09-25T04:49:22.966Z,1018.20
2018-09-25T04:50:22.952Z,1018.15
2018-09-25T04:51:22.940Z,1018.17
2018-09-25T04:52:22.969Z,1018.19
2018-09-25T04:53:22.923Z,1018.20
2018-09-25T04:54:22.917Z,1018.21
2018-09-25T04:55:22.897Z,1018.24
2018-09-25T04:56:22.884Z,1018.23
2018-09-25T04:57:22.887Z,1018.25
2018-09-25T04:58:22.909Z,1018.23
2018-09-25T04:59:22.852Z,1018.25
2018-09-25T05:00:22.838Z,1018.24
2018-09-25T05:01:22.833Z,1018.22
2018-09-25T05:02:22.816Z,1018.25
2018-09-25T05:03:22.810Z,1018.22
2018-09-25T05:04:22.857Z,1018.27
2018-09-25T05:05:22.784Z,1018.25
2018-09-25T05:06:22.771Z,1018.25
2018-09-25T05:07:22.760Z,1018.29
2018-09-25T05:08:22.753Z,1018.28
2018-09-25T05:09:22.738Z,1018.31
2018-09-25T05:10:22.864Z,1018.30
2018-09-25T05:11:22.717Z,1018.39
2018-09-25T05:12:22.706Z,1018.37
2018-09-25T05:13:22.694Z,1018.38
2018-09-25T05:14:22.687Z,1018.37
2018-09-25T05:15:22.674Z,1018.35
2018-09-25T05:16:22.707Z,1018.37
2018-09-25T05:17:22.666Z,1018.42
2018-09-25T05:18:22.645Z,1018.43
2018-09-25T05:19:22.631Z,1018.46
2018-09-25T05:20:22.633Z,1018.40
2018-09-25T05:21:22.611Z,1018.45
2018-09-25T05:22:22.632Z,1018.43
2018-09-25T05:23:22.592Z,1018.50
2018-09-25T05:24:22.572Z,1018.46
2018-09-25T05:25:22.578Z,1018.45
2018-09-25T05:26:22.566Z,1018.51
2018-09-25T05:27:22.540Z,1018.52
2018-09-25T05:28:22.568Z,1018.59
2018-09-25T05:29:22.518Z,1018.54
2018-09-25T05:30:22.507Z,1018.58
2018-09-25T05:31:22.502Z,1018.56
2018-09-25T05:32:22.492Z,1018.59
2018-09-25T05:33:22.491Z,1018.56
2018-09-25T05:34:22.507Z,1018.58
2018-09-25T05:35:22.465Z,1018.56
2018-09-25T05:36:22.444Z,1018.55
2018-09-25T05:37:22.428Z,1018.59
2018-09-25T05:38:22.424Z,1018.55
2018-09-25T05:39:22.413Z,1018.59
2018-09-25T05:40:22.435Z,1018.58
2018-09-25T05:41:22.393Z,1018.58
2018-09-25T05:42:22.383Z,1018.57
2018-09-25T05:43:22.375Z,1018.60
2018-09-25T05:44:22.381Z,1018.62
2018-09-25T05:45:22.355Z,1018.62
2018-09-25T05:46:22.370Z,1018.64
2018-09-25T05:47:22.318Z,1018.58
2018-09-25T05:48:22.366Z,1018.58
2018-09-25T05:49:22.297Z,1018.55
2018-09-25T05:50:22.291Z,1018.57
2018-09-25T05:51:22.274Z,1018.55
2018-09-25T05:52:22.298Z,1018.55
2018-09-25T05:53:22.277Z,1018.54
2018-09-25T05:54:22.243Z,1018.65
2018-09-25T05:55:22.243Z,1018.67
2018-09-25T05:56:22.219Z,1018.65
2018-09-25T05:57:22.217Z,1018.70
2018-09-25T05:58:22.233Z,1018.72
2018-09-25T05:59:22.192Z,1018.72
2018-09-25T06:00:22.177Z,1018.72
2018-09-25T06:01:22.185Z,1018.79
2018-09-25T06:02:22.207Z,1018.81
2018-09-25T06:03:22.141Z,1018.78
2018-09-25T06:04:22.191Z,1018.85
2018-09-25T06:05:22.131Z,1018.89
2018-09-25T06:06:22.124Z,1018.88
2018-09-25T06:07:22.135Z,1018.85
2018-09-25T06:08:22.088Z,1018.85
2018-09-25T06:09:22.124Z,1018.87
2018-09-25T06:10:22.102Z,1018.83
2018-09-25T06:11:22.056Z,1018.80
2018-09-25T06:12:22.055Z,1018.82
2018-09-25T06:13:22.035Z,1018.81
2018-09-25T06:14:22.019Z,1018.82
2018-09-25T06:15:22.012Z,1018.83
2018-09-25T06:16:22.043Z,1018.75
2018-09-25T06:17:21.995Z,1018.79
2018-09-25T06:18:21.975Z,1018.78
2018-09-25T06:19:21.974Z,1018.79
2018-09-25T06:20:21.956Z,1018.74
2018-09-25T06:21:21.946Z,1018.78
2018-09-25T06:22:21.973Z,1018.69
2018-09-25T06:23:21.932Z,1018.70
2018-09-25T06:24:21.911Z,1018.69
2018-09-25T06:25:21.903Z,1018.76
2018-09-25T06:26:21.886Z,1018.80
2018-09-25T06:27:21.876Z,1018.80
2018-09-25T06:28:21.902Z,1018.81
2018-09-25T06:29:21.876Z,1018.83
2018-09-25T06:30:21.844Z,1018.83
2018-09-25T06:31:21.833Z,1018.89
2018-09-25T06:32:21.824Z,1018.89
2018-09-25T06:33:21.814Z,1018.89
2018-09-25T06:34:21.837Z,1018.86
2018-09-25T06:35:21.803Z,1018.92
2018-09-25T06:36:21.779Z,1018.93
2018-09-25T06:37:21.829Z,1018.89
2018-09-25T06:38:21.755Z,1018.93
2018-09-25T06:39:21.747Z,1018.91
2018-09-25T06:40:21.780Z,1018.97
2018-09-25T06:41:21.740Z,1018.94
2018-09-25T06:42:21.719Z,1018.98
2018-09-25T06:43:21.703Z,1019.02
2018-09-25T06:44:21.689Z,1019.01
2018-09-25T06:45:21.678Z,1019.00
2018-09-25T06:46:21.766Z,1019.00
2018-09-25T06:47:21.712Z,1019.01
2018-09-25T06:48:21.656Z,1018.96
2018-09-25T06:49:21.639Z,1018.97
2018-09-25T06:50:21.624Z,1018.98
2018-09-25T06:51:21.616Z,1018.95
2018-09-25T06:52:21.643Z,1018.97
2018-09-25T06:53:21.632Z,1018.97
2018-09-25T06:54:21.604Z,1018.94
2018-09-25T06:55:21.600Z,1019.00
2018-09-25T06:56:21.564Z,1018.95
2018-09-25T06:57:21.546Z,1019.00
2018-09-25T06:58:21.575Z,1019.00
2018-09-25T06:59:21.524Z,1019.00
2018-09-25T07:00:21.524Z,1019.01
2018-09-25T07:01:21.505Z,1019.02
2018-09-25T07:02:21.490Z,1019.04
2018-09-25T07:03:21.480Z,1019.01
2018-09-25T07:04:21.502Z,1019.01
2018-09-25T07:05:21.458Z,1018.98
2018-09-25T07:06:21.465Z,1019.00
2018-09-25T07:07:21.436Z,1019.06
2018-09-25T07:08:21.425Z,1019.03
2018-09-25T07:09:21.413Z,1018.98
2018-09-25T07:10:21.571Z,1018.97
2018-09-25T07:11:21.393Z,1019.00
2018-09-25T07:12:21.388Z,1019.03
2018-09-25T07:13:21.383Z,1019.01
2018-09-25T07:14:21.373Z,1019.01
2018-09-25T07:15:21.356Z,1018.98
2018-09-25T07:16:21.400Z,1019.06
2018-09-25T07:17:21.330Z,1019.05
2018-09-25T07:18:21.318Z,1019.06
2018-09-25T07:19:21.311Z,1019.07
2018-09-25T07:20:21.291Z,1019.11
2018-09-25T07:21:21.301Z,1019.08
2018-09-25T07:22:21.309Z,1019.10
2018-09-25T07:23:21.258Z,1019.11
2018-09-25T07:24:21.246Z,1019.13
2018-09-25T07:25:21.241Z,1019.19
2018-09-25T07:26:21.231Z,1019.17
2018-09-25T07:27:21.221Z,1019.21
2018-09-25T07:28:21.249Z,1019.17
2018-09-25T07:29:21.198Z,1019.22
2018-09-25T07:30:21.179Z,1019.21
2018-09-25T07:31:21.172Z,1019.29
2018-09-25T07:32:21.159Z,1019.30
2018-09-25T07:33:21.146Z,1019.29
2018-09-25T07:34:21.196Z,1019.35
2018-09-25T07:35:21.132Z,1019.33
2018-09-25T07:36:21.123Z,1019.32
2018-09-25T07:37:21.101Z,1019.32
2018-09-25T07:38:21.103Z,1019.36
2018-09-25T07:39:21.084Z,1019.35
2018-09-25T07:40:21.115Z,1019.39
2018-09-25T07:41:21.065Z,1019.36
2018-09-25T07:42:21.058Z,1019.40
2018-09-25T07:43:21.078Z,1019.35
2018-09-25T07:44:21.030Z,1019.41
2018-09-25T07:45:21.017Z,1019.48
2018-09-25T07:46:21.041Z,1019.49
2018-09-25T07:47:21.004Z,1019.54
2018-09-25T07:48:21.148Z,1019.51
2018-09-25T07:49:20.984Z,1019.46
2018-09-25T07:50:21.027Z,1019.46
2018-09-25T07:51:20.960Z,1019.50
2018-09-25T07:52:21.014Z,1019.45
2018-09-25T07:53:20.930Z,1019.50
2018-09-25T07:54:20.940Z,1019.44
2018-09-25T07:55:20.960Z,1019.49
2018-09-25T07:56:20.915Z,1019.51
2018-09-25T07:57:20.891Z,1019.53
2018-09-25T07:58:20.907Z,1019.53
2018-09-25T07:59:20.874Z,1019.58
2018-09-25T08:00:20.890Z,1019.59
2018-09-25T08:01:20.840Z,1019.59
2018-09-25T08:02:20.828Z,1019.59
2018-09-25T08:03:20.831Z,1019.59
2018-09-25T08:04:20.840Z,1019.56
2018-09-25T08:05:20.790Z,1019.60
2018-09-25T08:06:20.806Z,1019.62
2018-09-25T08:07:20.784Z,1019.58
2018-09-25T08:08:20.767Z,1019.58
2018-09-25T08:09:20.780Z,1019.62
2018-09-25T08:10:20.788Z,1019.60
2018-09-25T08:11:20.725Z,1019.60
2018-09-25T08:12:20.748Z,1019.59
2018-09-25T08:13:20.706Z,1019.62
2018-09-25T08:14:20.689Z,1019.65
2018-09-25T08:15:20.713Z,1019.64
2018-09-25T08:16:20.707Z,1019.68
2018-09-25T08:17:20.662Z,1019.69
2018-09-25T08:18:20.650Z,1019.69
2018-09-25T08:19:20.652Z,1019.67
2018-09-25T08:20:20.634Z,1019.68
2018-09-25T08:21:20.634Z,1019.72
2018-09-25T08:22:20.638Z,1019.72
2018-09-25T08:23:20.601Z,1019.70
2018-09-25T08:24:20.586Z,1019.71
2018-09-25T08:25:20.573Z,1019.67
2018-09-25T08:26:20.565Z,1019.74
2018-09-25T08:27:20.547Z,1019.74
2018-09-25T08:28:20.586Z,1019.72
2018-09-25T08:29:20.585Z,1019.74
2018-09-25T08:30:20.567Z,1019.73
2018-09-25T08:31:20.512Z,1019.72
2018-09-25T08:32:20.499Z,1019.75
2018-09-25T08:33:20.512Z,1019.76
2018-09-25T08:34:20.513Z,1019.78
2018-09-25T08:35:20.464Z,1019.78
2018-09-25T08:36:20.479Z,1019.75
2018-09-25T08:37:20.476Z,1019.72
2018-09-25T08:38:20.434Z,1019.76
2018-09-25T08:39:20.539Z,1019.76
2018-09-25T08:40:20.452Z,1019.71
2018-09-25T08:41:20.396Z,1019.74
2018-09-25T08:42:20.418Z,1019.81
2018-09-25T08:43:20.427Z,1019.81
2018-09-25T08:44:20.360Z,1019.76
2018-09-25T08:45:20.351Z,1019.84
2018-09-25T08:46:20.383Z,1019.77
2018-09-25T08:47:20.328Z,1019.83
2018-09-25T08:48:20.336Z,1019.85
2018-09-25T08:49:20.315Z,1019.81
2018-09-25T08:50:20.305Z,1019.85
2018-09-25T08:51:20.330Z,1019.85
2018-09-25T08:52:20.313Z,1019.89
2018-09-25T08:53:20.293Z,1019.90
2018-09-25T08:54:20.268Z,1019.88
2018-09-25T08:55:20.250Z,1019.93
2018-09-25T08:56:20.236Z,1019.94
2018-09-25T08:57:20.228Z,1019.93
2018-09-25T08:58:20.276Z,1019.99
2018-09-25T08:59:20.211Z,1019.98
2018-09-25T09:00:20.194Z,1019.99
2018-09-25T09:01:20.176Z,1019.96
2018-09-25T09:02:20.165Z,1019.99
2018-09-25T09:03:20.153Z,1019.94
2018-09-25T09:04:20.200Z,1019.96
2018-09-25T09:05:20.136Z,1019.95
2018-09-25T09:06:20.125Z,1019.90
2018-09-25T09:07:20.112Z,1019.95
2018-09-25T09:08:20.204Z,1019.98
2018-09-25T09:09:20.096Z,1019.96
2018-09-25T09:10:20.117Z,1019.96
2018-09-25T09:11:20.088Z,1019.97
2018-09-25T09:12:20.068Z,1019.95
2018-09-25T09:13:20.055Z,1019.98
2018-09-25T09:14:20.064Z,1020.03
2018-09-25T09:15:20.051Z,1020.04
2018-09-25T09:16:20.050Z,1020.03
2018-09-25T09:17:20.021Z,1020.01
2018-09-25T09:18:19.989Z,1020.01
2018-09-25T09:19:19.974Z,1020.01
2018-09-25T09:20:19.962Z,1019.97
2018-09-25T09:21:19.955Z,1019.98
2018-09-25T09:22:19.981Z,1019.98
2018-09-25T09:23:19.952Z,1019.97
2018-09-25T09:24:19.928Z,1019.95
2018-09-25T09:25:19.964Z,1019.90
2018-09-25T09:26:19.904Z,1019.93
2018-09-25T09:27:19.892Z,1019.92
2018-09-25T09:28:19.912Z,1019.94
2018-09-25T09:29:19.894Z,1019.92
2018-09-25T09:30:19.852Z,1019.86
2018-09-25T09:31:19.840Z,1019.88
2018-09-25T09:32:19.839Z,1019.90
2018-09-25T09:33:19.825Z,1019.86
2018-09-25T09:34:19.854Z,1019.84
2018-09-25T09:35:19.801Z,1019.89
2018-09-25T09:36:19.784Z,1019.93
2018-09-25T09:37:19.774Z,1019.94
2018-09-25T09:38:19.761Z,1019.89
2018-09-25T09:39:19.755Z,1019.91
2018-09-25T09:40:19.797Z,1019.88
2018-09-25T09:41:19.809Z,1019.88
2018-09-25T09:42:19.713Z,1019.89
2018-09-25T09:43:19.715Z,1019.90
2018-09-25T09:44:19.692Z,1019.92
2018-09-25T09:45:19.688Z,1019.92
2018-09-25T09:46:19.718Z,1019.88
2018-09-25T09:47:19.669Z,1019.87
2018-09-25T09:48:19.656Z,1019.83
2018-09-25T09:49:19.718Z,1019.82
2018-09-25T09:50:19.664Z,1019.82
2018-09-25T09:51:19.621Z,1019.85
2018-09-25T09:52:19.635Z,1019.84
2018-09-25T09:53:19.599Z,1019.82
2018-09-25T09:54:19.602Z,1019.78
2018-09-25T09:55:19.569Z,1019.84
2018-09-25T09:56:19.643Z,1019.81
2018-09-25T09:57:19.549Z,1019.83
2018-09-25T09:58:19.579Z,1019.75
2018-09-25T09:59:19.526Z,1019.76
2018-09-25T10:00:19.528Z,1019.79
2018-09-25T10:01:19.509Z,1019.77
2018-09-25T10:02:19.491Z,1019.76
2018-09-25T10:03:19.486Z,1019.77
2018-09-25T10:04:19.500Z,1019.80
2018-09-25T10:05:19.468Z,1019.75
2018-09-25T10:06:19.487Z,1019.71
2018-09-25T10:07:19.518Z,1019.75
2018-09-25T10:08:19.428Z,1019.74
2018-09-25T10:09:19.426Z,1019.79
2018-09-25T10:10:19.451Z,1019.78
2018-09-25T10:11:19.388Z,1019.75
2018-09-25T10:12:19.422Z,1019.68
2018-09-25T10:13:19.369Z,1019.66
2018-09-25T10:14:19.358Z,1019.67
2018-09-25T10:15:19.371Z,1019.68
2018-09-25T10:16:19.380Z,1019.66
2018-09-25T10:17:19.326Z,1019.70
2018-09-25T10:18:19.332Z,1019.66
2018-09-25T10:19:19.308Z,1019.63
2018-09-25T10:20:19.292Z,1019.65
2018-09-25T10:21:19.275Z,1019.63
2018-09-25T10:22:19.302Z,1019.69
2018-09-25T10:23:19.291Z,1019.66
2018-09-25T10:24:19.244Z,1019.67
2018-09-25T10:25:19.230Z,1019.62
2018-09-25T10:26:19.256Z,1019.64
2018-09-25T10:27:19.264Z,1019.63
2018-09-25T10:28:19.243Z,1019.63
2018-09-25T10:29:19.184Z,1019.61
2018-09-25T10:30:19.187Z,1019.55
2018-09-25T10:31:19.163Z,1019.57
2018-09-25T10:32:19.151Z,1019.65
2018-09-25T10:33:19.145Z,1019.61
2018-09-25T10:34:19.239Z,1019.59
2018-09-25T10:35:19.127Z,1019.58
2018-09-25T10:36:19.111Z,1019.64
2018-09-25T10:37:19.101Z,1019.61
2018-09-25T10:38:19.100Z,1019.61
2018-09-25T10:39:19.075Z,1019.62
2018-09-25T10:40:19.130Z,1019.64
2018-09-25T10:41:19.056Z,1019.60
2018-09-25T10:42:19.040Z,1019.60
2018-09-25T10:43:19.035Z,1019.54
2018-09-25T10:44:19.021Z,1019.56
2018-09-25T10:45:19.026Z,1019.55
2018-09-25T10:46:19.058Z,1019.57
2018-09-25T10:47:19.508Z,1019.55
2018-09-25T10:48:18.987Z,1019.58
2018-09-25T10:49:18.967Z,1019.58
2018-09-25T10:50:18.976Z,1019.64
2018-09-25T10:51:18.943Z,1019.61
2018-09-25T10:52:19.009Z,1019.63
2018-09-25T10:53:18.920Z,1019.65
2018-09-25T10:54:18.926Z,1019.58
2018-09-25T10:55:18.928Z,1019.63
2018-09-25T10:56:19.062Z,1019.63
2018-09-25T10:57:18.875Z,1019.57
2018-09-25T10:58:18.918Z,1019.56
2018-09-25T10:59:18.859Z,1019.54
2018-09-25T11:00:18.842Z,1019.53
2018-09-25T11:01:18.839Z,1019.45
2018-09-25T11:02:18.819Z,1019.48
2018-09-25T11:03:18.946Z,1019.49
2018-09-25T11:04:18.842Z,1019.48
2018-09-25T11:05:18.804Z,1019.45
2018-09-25T11:06:18.783Z,1019.52
2018-09-25T11:07:18.767Z,1019.50
2018-09-25T11:08:18.753Z,1019.49
2018-09-25T11:09:18.739Z,1019.48
2018-09-25T11:10:18.773Z,1019.45
2018-09-25T11:11:18.747Z,1019.48
2018-09-25T11:12:18.710Z,1019.53
2018-09-25T11:13:18.698Z,1019.52
2018-09-25T11:14:18.687Z,1019.48
2018-09-25T11:15:18.677Z,1019.51
2018-09-25T11:16:18.700Z,1019.50
2018-09-25T11:17:18.663Z,1019.44
2018-09-25T11:18:18.650Z,1019.46
2018-09-25T11:19:18.628Z,1019.44
2018-09-25T11:20:18.618Z,1019.49
2018-09-25T11:21:18.608Z,1019.51
2018-09-25T11:22:18.758Z,1019.48
2018-09-25T11:23:18.626Z,1019.47
2018-09-25T11:24:18.698Z,1019.54
2018-09-25T11:25:18.719Z,1019.51
2018-09-25T11:26:18.550Z,1019.53
2018-09-25T11:27:18.544Z,1019.53
2018-09-25T11:28:18.613Z,1019.58
2018-09-25T11:29:18.521Z,1019.53
2018-09-25T11:30:18.516Z,1019.58
2018-09-25T11:31:18.497Z,1019.54
2018-09-25T11:32:18.498Z,1019.54
2018-09-25T11:33:18.474Z,1019.52
2018-09-25T11:34:18.495Z,1019.57
2018-09-25T11:35:18.502Z,1019.55
2018-09-25T11:36:18.441Z,1019.53
2018-09-25T11:37:18.435Z,1019.55
2018-09-25T11:38:18.420Z,1019.54
2018-09-25T11:39:18.418Z,1019.58
2018-09-25T11:40:18.434Z,1019.60
2018-09-25T11:41:18.390Z,1019.62
2018-09-25T11:42:18.376Z,1019.63
2018-09-25T11:43:18.359Z,1019.62
2018-09-25T11:44:18.344Z,1019.59
2018-09-25T11:45:18.352Z,1019.54
2018-09-25T11:46:18.383Z,1019.53
2018-09-25T11:47:18.313Z,1019.49
2018-09-25T11:48:18.321Z,1019.50
2018-09-25T11:49:18.290Z,1019.47
2018-09-25T11:50:18.292Z,1019.55
2018-09-25T11:51:18.293Z,1019.53
2018-09-25T11:52:18.297Z,1019.55
2018-09-25T11:53:18.247Z,1019.50
2018-09-25T11:54:18.250Z,1019.51
2018-09-25T11:55:18.223Z,1019.46
2018-09-25T11:56:18.254Z,1019.42
2018-09-25T11:57:18.202Z,1019.57
2018-09-25T11:58:18.276Z,1019.46
2018-09-25T11:59:18.177Z,1019.34
2018-09-25T12:00:18.178Z,1019.36
2018-09-25T12:01:18.162Z,1019.34
2018-09-25T12:02:18.254Z,1019.39
2018-09-25T12:03:18.139Z,1019.36
2018-09-25T12:04:18.163Z,1019.31
2018-09-25T12:05:18.110Z,1019.31